createdAt,value
2017-12-19T00:00:32.314Z,3.23
2017-12-19T00:02:59.794Z,3.21
2017-12-19T00:05:27.273Z,3.19
2017-12-19T00:07:54.766Z,3.15
2017-12-19T00:10:25.015Z,3.19
2017-12-19T00:12:52.485Z,3.15
2017-12-19T00:15:19.974Z,3.17
2017-12-19T00:17:47.488Z,3.09
2017-12-19T00:20:14.991Z,3.17
2017-12-19T00:22:42.529Z,3.19
2017-12-19T00:25:13.360Z,3.15
2017-12-19T00:27:40.844Z,3.17
2017-12-19T00:30:08.319Z,3.18
2017-12-19T00:32:35.806Z,3.16
2017-12-19T00:35:03.313Z,3.15
2017-12-19T00:37:30.794Z,3.12
2017-12-19T00:39:58.301Z,3.16
2017-12-19T00:42:25.803Z,3.14
2017-12-19T00:44:53.304Z,3.12
2017-12-19T00:47:20.794Z,3.13
2017-12-19T00:49:51.227Z,3.11
2017-12-19T00:52:18.719Z,3.15
2017-12-19T00:54:46.221Z,3.09
2017-12-19T00:57:13.772Z,3.08
2017-12-19T00:59:41.254Z,3.05
2017-12-19T01:02:08.760Z,3.06
2017-12-19T01:04:36.273Z,3.07
2017-12-19T01:07:03.776Z,3.08
2017-12-19T01:09:31.307Z,3.06
2017-12-19T01:11:58.804Z,3.12
2017-12-19T01:14:26.301Z,3.14
2017-12-19T01:16:54.248Z,3.19
2017-12-19T01:19:21.773Z,3.17
2017-12-19T01:21:49.252Z,3.12
2017-12-19T01:24:16.752Z,3.15
2017-12-19T01:26:44.229Z,3.12
2017-12-19T01:29:11.733Z,3.14
2017-12-19T01:31:39.252Z,3.13
2017-12-19T01:34:06.756Z,3.17
2017-12-19T01:36:34.280Z,3.18
2017-12-19T01:39:01.802Z,3.19
2017-12-19T01:41:29.289Z,3.23
2017-12-19T01:43:57.649Z,3.19
2017-12-19T01:46:25.134Z,3.14
2017-12-19T01:48:52.669Z,3.13
2017-12-19T01:51:20.221Z,3.16
2017-12-19T01:53:47.715Z,3.16
2017-12-19T01:56:15.186Z,3.21
2017-12-19T01:58:42.772Z,3.15
2017-12-19T02:01:10.257Z,3.15
2017-12-19T02:03:37.734Z,3.15
2017-12-19T02:06:05.206Z,3.18
2017-12-19T02:08:32.712Z,3.15
2017-12-19T02:11:00.221Z,3.17
2017-12-19T02:13:27.719Z,3.17
2017-12-19T02:15:55.408Z,3.16
2017-12-19T02:18:22.920Z,3.21
2017-12-19T02:20:53.279Z,3.14
2017-12-19T02:23:20.763Z,3.12
2017-12-19T02:25:48.241Z,3.18
2017-12-19T02:28:15.744Z,3.21
2017-12-19T02:30:43.272Z,3.16
2017-12-19T02:33:10.771Z,3.18
2017-12-19T02:35:38.273Z,3.12
2017-12-19T02:38:05.761Z,3.11
2017-12-19T02:40:33.389Z,3.14
2017-12-19T02:43:12.468Z,3.17
2017-12-19T02:45:39.970Z,3.13
2017-12-19T02:48:07.442Z,3.17
2017-12-19T02:50:34.929Z,3.09
2017-12-19T02:53:02.433Z,3.14
2017-12-19T02:55:29.918Z,3.11
2017-12-19T02:57:57.415Z,3.10
2017-12-19T03:00:24.928Z,3.11
2017-12-19T03:02:52.426Z,3.13
2017-12-19T03:05:19.903Z,3.12
2017-12-19T03:07:47.737Z,3.06
2017-12-19T03:10:15.256Z,3.12
2017-12-19T03:12:42.730Z,3.06
2017-12-19T03:15:10.218Z,3.09
2017-12-19T03:17:37.713Z,3.13
2017-12-19T03:20:05.210Z,3.10
2017-12-19T03:22:32.712Z,3.13
2017-12-19T03:25:00.205Z,3.17
2017-12-19T03:27:27.728Z,3.14
2017-12-19T03:29:55.224Z,3.16
2017-12-19T03:32:22.720Z,3.15
2017-12-19T03:34:50.216Z,3.12
2017-12-19T03:37:17.752Z,3.16
2017-12-19T03:39:45.218Z,3.17
2017-12-19T03:42:12.689Z,3.15
2017-12-19T03:44:40.170Z,3.14
2017-12-19T03:47:07.688Z,3.15
2017-12-19T03:49:35.189Z,3.18
2017-12-19T03:52:02.654Z,3.13
2017-12-19T03:54:30.145Z,3.18
2017-12-19T03:56:57.626Z,3.16
2017-12-19T03:59:25.334Z,3.21
2017-12-19T04:01:52.806Z,3.23
2017-12-19T04:04:20.278Z,3.15
2017-12-19T04:06:47.757Z,3.18
2017-12-19T04:09:15.230Z,3.24
2017-12-19T04:11:42.717Z,3.25
2017-12-19T04:14:10.217Z,3.18
2017-12-19T04:16:37.738Z,3.22
2017-12-19T04:19:05.214Z,3.23
2017-12-19T04:21:32.697Z,3.23
2017-12-19T04:24:00.162Z,3.21
2017-12-19T04:26:27.642Z,3.24
2017-12-19T04:28:55.114Z,3.26
2017-12-19T04:31:22.988Z,3.23
2017-12-19T04:33:50.473Z,3.25
2017-12-19T04:36:17.956Z,3.27
2017-12-19T04:38:45.449Z,3.27
2017-12-19T04:41:12.931Z,3.28
2017-12-19T04:43:40.432Z,3.30
2017-12-19T04:46:07.928Z,3.24
2017-12-19T04:48:35.414Z,3.22
2017-12-19T04:51:02.904Z,3.25
2017-12-19T04:53:30.392Z,3.21
2017-12-19T04:55:57.888Z,3.24
2017-12-19T04:58:25.382Z,3.28
2017-12-19T05:00:52.891Z,3.30
2017-12-19T05:03:20.374Z,3.26
2017-12-19T05:05:47.856Z,3.27
2017-12-19T05:08:15.376Z,3.25
2017-12-19T05:10:42.887Z,3.25
2017-12-19T05:13:10.381Z,3.28
2017-12-19T05:15:37.855Z,3.13
2017-12-19T05:18:05.590Z,3.17
2017-12-19T05:20:33.705Z,3.17
2017-12-19T05:23:01.313Z,3.20
2017-12-19T05:25:29.553Z,3.17
2017-12-19T05:27:57.052Z,3.23
2017-12-19T05:30:24.540Z,3.22
2017-12-19T05:32:52.010Z,3.25
2017-12-19T05:35:19.499Z,3.21
2017-12-19T05:37:46.995Z,3.14
2017-12-19T05:40:14.496Z,3.14
2017-12-19T05:42:41.987Z,3.15
2017-12-19T05:45:09.484Z,3.22
2017-12-19T05:47:36.954Z,3.20
2017-12-19T05:50:04.438Z,3.23
2017-12-19T05:52:31.949Z,3.19
2017-12-19T05:54:59.437Z,3.21
2017-12-19T05:57:26.930Z,3.16
2017-12-19T05:59:54.429Z,3.15
2017-12-19T06:02:21.917Z,3.23
2017-12-19T06:04:49.427Z,3.18
2017-12-19T06:07:16.949Z,3.13
2017-12-19T06:09:44.448Z,3.13
2017-12-19T06:12:11.937Z,3.14
2017-12-19T06:14:39.450Z,3.17
2017-12-19T06:17:06.960Z,3.13
2017-12-19T06:19:34.475Z,3.21
2017-12-19T06:22:01.962Z,3.23
2017-12-19T06:24:29.457Z,3.24
2017-12-19T06:26:56.950Z,3.21
2017-12-19T06:29:24.447Z,3.23
2017-12-19T06:31:51.925Z,3.15
2017-12-19T06:34:19.401Z,3.18
2017-12-19T06:36:46.904Z,3.17
2017-12-19T06:39:14.405Z,3.10
2017-12-19T06:41:41.898Z,3.15
2017-12-19T06:44:09.401Z,3.23
2017-12-19T06:46:36.890Z,3.14
2017-12-19T06:49:04.374Z,3.19
2017-12-19T06:51:31.856Z,3.14
2017-12-19T06:53:59.348Z,3.15
2017-12-19T06:56:26.847Z,3.24
2017-12-19T06:58:54.344Z,3.25
2017-12-19T07:01:21.812Z,3.17
2017-12-19T07:03:49.377Z,3.20
2017-12-19T07:06:16.841Z,3.17
2017-12-19T07:08:44.342Z,3.19
2017-12-19T07:11:11.830Z,3.21
2017-12-19T07:13:39.304Z,3.20
2017-12-19T07:16:06.823Z,3.22
2017-12-19T07:18:34.502Z,3.20
2017-12-19T07:21:02.094Z,3.16
2017-12-19T07:23:29.550Z,3.19
2017-12-19T07:25:57.033Z,3.26
2017-12-19T07:28:24.535Z,3.20
2017-12-19T07:30:52.029Z,3.23
2017-12-19T07:33:19.510Z,3.26
2017-12-19T07:35:47.272Z,3.33
2017-12-19T07:38:14.738Z,3.32
2017-12-19T07:40:42.220Z,3.32
2017-12-19T07:43:09.681Z,3.26
2017-12-19T07:45:37.164Z,3.28
2017-12-19T07:48:04.956Z,3.25
2017-12-19T07:50:33.117Z,3.28
2017-12-19T07:53:00.605Z,3.28
2017-12-19T07:55:28.125Z,3.34
2017-12-19T07:57:55.993Z,3.36
2017-12-19T08:00:23.472Z,3.40
2017-12-19T08:02:50.946Z,3.36
2017-12-19T08:05:18.464Z,3.37
2017-12-19T08:07:45.964Z,3.36
2017-12-19T08:10:13.425Z,3.39
2017-12-19T08:12:40.924Z,3.40
2017-12-19T08:15:08.434Z,3.45
2017-12-19T08:17:35.935Z,3.46
2017-12-19T08:20:03.460Z,3.44
2017-12-19T08:22:30.953Z,3.50
2017-12-19T08:24:58.423Z,3.46
2017-12-19T08:27:25.900Z,3.52
2017-12-19T08:29:53.406Z,3.52
2017-12-19T08:32:20.898Z,3.51
2017-12-19T08:34:48.386Z,3.55
2017-12-19T08:37:15.883Z,3.55
2017-12-19T08:39:43.907Z,3.58
2017-12-19T08:42:11.412Z,3.59
2017-12-19T08:44:38.908Z,3.64
2017-12-19T08:47:06.390Z,3.62
2017-12-19T08:49:33.880Z,3.65
2017-12-19T08:52:01.373Z,3.67
2017-12-19T08:54:29.730Z,3.69
2017-12-19T08:56:57.216Z,3.75
2017-12-19T08:59:24.712Z,3.74
2017-12-19T09:01:52.227Z,3.76
2017-12-19T09:04:19.787Z,3.76
2017-12-19T09:06:47.280Z,3.78
2017-12-19T09:09:14.817Z,3.79
2017-12-19T09:11:42.272Z,3.81
2017-12-19T09:14:09.745Z,3.84
2017-12-19T09:16:37.223Z,3.81
2017-12-19T09:19:04.709Z,3.85
2017-12-19T09:21:32.212Z,3.91
2017-12-19T09:23:59.887Z,3.93
2017-12-19T09:26:27.389Z,3.95
2017-12-19T09:28:54.882Z,3.94
2017-12-19T09:31:22.371Z,3.96
2017-12-19T09:33:49.863Z,4.04
2017-12-19T09:36:17.334Z,4.04
2017-12-19T09:38:44.834Z,4.06
2017-12-19T09:41:12.316Z,4.11
2017-12-19T09:43:39.837Z,4.12
2017-12-19T09:46:07.329Z,4.17
2017-12-19T09:48:34.813Z,4.16
2017-12-19T09:51:02.310Z,4.17
2017-12-19T09:53:29.809Z,4.19
2017-12-19T09:55:57.284Z,4.22
2017-12-19T09:58:24.768Z,4.22
2017-12-19T10:00:52.253Z,4.31
2017-12-19T10:03:19.752Z,4.32
2017-12-19T10:05:47.257Z,4.30
2017-12-19T10:08:14.725Z,4.31
2017-12-19T10:10:42.222Z,4.36
2017-12-19T10:13:09.694Z,4.34
2017-12-19T10:15:37.190Z,4.38
2017-12-19T10:18:04.703Z,4.36
2017-12-19T10:20:32.200Z,4.44
2017-12-19T10:22:59.717Z,4.36
2017-12-19T10:25:27.566Z,4.33
2017-12-19T10:27:55.062Z,4.38
2017-12-19T10:30:22.563Z,4.41
2017-12-19T10:32:50.124Z,4.45
2017-12-19T10:35:17.625Z,4.47
2017-12-19T10:37:45.105Z,4.48
2017-12-19T10:40:12.600Z,4.42
2017-12-19T10:42:40.096Z,4.44
2017-12-19T10:45:07.574Z,4.51
2017-12-19T10:47:35.081Z,4.55
2017-12-19T10:50:02.568Z,4.54
2017-12-19T10:52:30.102Z,4.51
2017-12-19T10:54:57.570Z,4.52
2017-12-19T10:57:25.034Z,4.54
2017-12-19T10:59:52.536Z,4.54
2017-12-19T11:02:20.089Z,4.49
2017-12-19T11:04:47.530Z,4.46
2017-12-19T11:07:15.008Z,4.54
2017-12-19T11:09:42.482Z,4.55
2017-12-19T11:12:09.966Z,4.58
2017-12-19T11:14:37.464Z,4.64
2017-12-19T11:17:04.930Z,4.71
2017-12-19T11:19:32.424Z,4.69
2017-12-19T11:21:59.920Z,4.66
2017-12-19T11:24:27.413Z,4.70
2017-12-19T11:26:54.889Z,4.69
2017-12-19T11:29:22.387Z,4.70
2017-12-19T11:31:50.215Z,4.72
2017-12-19T11:34:17.746Z,4.68
2017-12-19T11:36:45.245Z,4.66
2017-12-19T11:39:12.864Z,4.70
2017-12-19T11:41:40.338Z,4.81
2017-12-19T11:44:07.878Z,4.83
2017-12-19T11:46:36.064Z,4.84
2017-12-19T11:49:03.525Z,4.83
2017-12-19T11:51:31.063Z,4.79
2017-12-19T11:53:58.542Z,4.90
2017-12-19T11:56:26.088Z,4.87
2017-12-19T11:58:53.557Z,4.92
2017-12-19T12:01:21.030Z,4.93
2017-12-19T12:03:48.551Z,4.95
2017-12-19T12:06:16.030Z,4.96
2017-12-19T12:08:43.521Z,4.93
2017-12-19T12:11:11.037Z,4.94
2017-12-19T12:13:38.507Z,4.99
2017-12-19T12:16:06.042Z,5.03
2017-12-19T12:18:33.531Z,5.00
2017-12-19T12:21:01.053Z,5.08
2017-12-19T12:23:28.552Z,5.10
2017-12-19T12:25:56.083Z,5.15
2017-12-19T12:28:23.649Z,5.11
2017-12-19T12:30:51.850Z,5.14
2017-12-19T12:33:19.365Z,5.11
2017-12-19T12:35:46.873Z,5.15
2017-12-19T12:38:14.389Z,5.15
2017-12-19T12:40:41.879Z,5.18
2017-12-19T12:43:09.364Z,5.17
2017-12-19T12:45:36.866Z,5.11
2017-12-19T12:48:04.360Z,5.21
2017-12-19T12:50:31.909Z,5.13
2017-12-19T12:52:59.411Z,5.15
2017-12-19T12:55:26.909Z,5.20
2017-12-19T12:57:54.998Z,5.20
2017-12-19T13:00:22.499Z,5.19
2017-12-19T13:02:50.626Z,5.18
2017-12-19T13:05:18.134Z,5.11
2017-12-19T13:07:45.641Z,5.17
2017-12-19T13:10:13.675Z,5.15
2017-12-19T13:12:41.155Z,5.08
2017-12-19T13:15:08.631Z,5.15
2017-12-19T13:17:36.133Z,5.09
2017-12-19T13:20:03.635Z,5.13
2017-12-19T13:22:31.127Z,5.11
2017-12-19T13:24:58.586Z,5.10
2017-12-19T13:27:26.057Z,5.13
2017-12-19T13:29:53.546Z,5.10
2017-12-19T13:32:21.040Z,5.12
2017-12-19T13:34:48.530Z,5.15
2017-12-19T13:37:16.057Z,5.11
2017-12-19T13:39:43.571Z,5.18
2017-12-19T13:42:11.076Z,5.18
2017-12-19T13:44:38.556Z,5.13
2017-12-19T13:47:06.044Z,5.16
2017-12-19T13:49:33.519Z,5.17
2017-12-19T13:52:01.058Z,5.19
2017-12-19T13:54:29.194Z,5.22
2017-12-19T13:56:56.674Z,5.20
2017-12-19T13:59:24.150Z,5.21
2017-12-19T14:01:51.647Z,5.20
2017-12-19T14:04:19.154Z,5.24
2017-12-19T14:06:46.692Z,5.19
2017-12-19T14:09:14.251Z,5.20
2017-12-19T14:11:41.817Z,5.23
2017-12-19T14:14:10.014Z,5.22
2017-12-19T14:16:37.523Z,5.20
2017-12-19T14:19:05.032Z,5.26
2017-12-19T14:21:33.055Z,5.24
2017-12-19T14:24:00.582Z,5.24
2017-12-19T14:26:28.079Z,5.22
2017-12-19T14:28:55.892Z,5.20
2017-12-19T14:31:23.383Z,5.17
2017-12-19T14:33:51.124Z,5.22
2017-12-19T14:36:18.629Z,5.15
2017-12-19T14:38:46.146Z,5.18
2017-12-19T14:41:13.705Z,5.16
2017-12-19T14:43:41.184Z,5.20
2017-12-19T14:46:08.680Z,5.18
2017-12-19T14:48:36.206Z,5.18
2017-12-19T14:51:03.698Z,5.17
2017-12-19T14:53:31.214Z,5.22
2017-12-19T14:55:58.701Z,5.26
2017-12-19T14:58:26.180Z,5.25
2017-12-19T15:00:53.724Z,5.24
2017-12-19T15:03:21.216Z,5.25
2017-12-19T15:05:48.701Z,5.26
2017-12-19T15:08:17.186Z,5.29
2017-12-19T15:10:44.680Z,5.24
2017-12-19T15:13:12.150Z,5.23
2017-12-19T15:15:41.341Z,5.29
2017-12-19T15:18:09.149Z,5.25
2017-12-19T15:20:36.622Z,5.27
2017-12-19T15:23:04.106Z,5.30
2017-12-19T15:25:31.590Z,5.26
2017-12-19T15:27:59.069Z,5.25
2017-12-19T15:30:26.568Z,5.27
2017-12-19T15:32:54.058Z,5.29
2017-12-19T15:35:21.543Z,5.31
2017-12-19T15:37:49.011Z,5.30
2017-12-19T15:40:16.497Z,5.36
2017-12-19T15:42:43.998Z,5.33
2017-12-19T15:45:11.496Z,5.33
2017-12-19T15:47:39.036Z,5.33
2017-12-19T15:50:06.958Z,5.35
2017-12-19T15:52:34.438Z,5.38
2017-12-19T15:55:01.910Z,5.39
2017-12-19T15:57:29.477Z,5.39
2017-12-19T15:59:56.956Z,5.40
2017-12-19T16:02:24.446Z,5.38
2017-12-19T16:04:51.922Z,5.39
2017-12-19T16:07:19.402Z,5.39
2017-12-19T16:09:46.887Z,5.35
2017-12-19T16:12:14.399Z,5.35
2017-12-19T16:14:41.906Z,5.33
2017-12-19T16:17:12.402Z,5.35
2017-12-19T16:19:39.877Z,5.37
2017-12-19T16:22:07.360Z,5.32
2017-12-19T16:24:34.854Z,5.32
2017-12-19T16:27:02.322Z,5.30
2017-12-19T16:29:29.801Z,5.31
2017-12-19T16:31:57.283Z,5.32
2017-12-19T16:34:24.794Z,5.30
2017-12-19T16:36:52.286Z,5.31
2017-12-19T16:39:19.766Z,5.29
2017-12-19T16:41:47.272Z,5.32
2017-12-19T16:44:14.754Z,5.34
2017-12-19T16:46:42.224Z,5.34
2017-12-19T16:49:09.741Z,5.34
2017-12-19T16:51:37.210Z,5.33
2017-12-19T16:54:05.242Z,5.32
2017-12-19T16:56:32.743Z,5.29
2017-12-19T16:59:00.239Z,5.37
2017-12-19T17:01:27.752Z,5.34
2017-12-19T17:03:55.234Z,5.34
2017-12-19T17:06:22.706Z,5.37
2017-12-19T17:08:50.427Z,5.34
2017-12-19T17:11:17.917Z,5.37
2017-12-19T17:13:45.402Z,5.41
2017-12-19T17:16:12.902Z,5.40
2017-12-19T17:18:40.953Z,5.39
2017-12-19T17:21:08.430Z,5.37
2017-12-19T17:23:35.906Z,5.36
2017-12-19T17:26:03.390Z,5.35
2017-12-19T17:28:30.874Z,5.31
2017-12-19T17:30:58.366Z,5.33
2017-12-19T17:33:25.858Z,5.32
2017-12-19T17:35:53.347Z,5.33
2017-12-19T17:38:26.216Z,5.29
2017-12-19T17:40:54.586Z,5.31
2017-12-19T17:43:22.133Z,5.36
2017-12-19T17:45:49.604Z,5.33
2017-12-19T17:48:17.157Z,5.33
2017-12-19T17:50:44.673Z,5.32
2017-12-19T17:53:12.225Z,5.31
2017-12-19T17:55:39.718Z,5.32
2017-12-19T17:58:07.381Z,5.29
2017-12-19T18:00:34.868Z,5.29
2017-12-19T18:03:02.409Z,5.33
2017-12-19T18:05:29.886Z,5.29
2017-12-19T18:07:57.380Z,5.32
2017-12-19T18:10:24.905Z,5.26
2017-12-19T18:12:52.532Z,5.26
2017-12-19T18:15:20.046Z,5.23
2017-12-19T18:17:47.566Z,5.23
2017-12-19T18:20:15.076Z,5.26
2017-12-19T18:22:42.586Z,5.19
2017-12-19T18:25:10.060Z,5.18
2017-12-19T18:27:37.522Z,5.19
2017-12-19T18:30:05.020Z,5.16
2017-12-19T18:32:32.510Z,5.12
2017-12-19T18:34:59.992Z,5.14
2017-12-19T18:37:27.492Z,5.13
2017-12-19T18:39:55.014Z,5.12
2017-12-19T18:42:22.526Z,5.14
2017-12-19T18:44:50.035Z,5.11
2017-12-19T18:47:17.504Z,5.14
2017-12-19T18:49:45.015Z,5.11
2017-12-19T18:52:12.489Z,5.07
2017-12-19T18:54:39.975Z,5.10
2017-12-19T18:57:07.475Z,5.11
2017-12-19T18:59:34.968Z,5.08
2017-12-19T19:02:02.458Z,5.04
2017-12-19T19:04:29.946Z,5.05
2017-12-19T19:06:57.422Z,5.06
2017-12-19T19:09:25.690Z,5.05
2017-12-19T19:11:53.169Z,5.07
2017-12-19T19:14:20.674Z,5.03
2017-12-19T19:16:48.155Z,5.06
2017-12-19T19:19:16.399Z,5.06
2017-12-19T19:21:44.660Z,5.07
2017-12-19T19:24:12.158Z,5.06
2017-12-19T19:26:39.671Z,4.99
2017-12-19T19:29:07.547Z,4.92
2017-12-19T19:31:35.053Z,4.99
2017-12-19T19:34:02.543Z,4.95
2017-12-19T19:36:30.058Z,4.92
2017-12-19T19:38:57.629Z,4.92
2017-12-19T19:41:25.111Z,4.90
2017-12-19T19:43:52.636Z,4.92
2017-12-19T19:46:20.129Z,4.95
2017-12-19T19:48:47.610Z,4.97
2017-12-19T19:51:15.105Z,4.92
2017-12-19T19:53:42.608Z,4.95
2017-12-19T19:56:10.128Z,4.94
2017-12-19T19:58:37.614Z,4.91
2017-12-19T20:01:05.156Z,4.90
2017-12-19T20:03:32.632Z,4.90
2017-12-19T20:06:00.106Z,4.93
2017-12-19T20:08:28.044Z,4.96
2017-12-19T20:11:11.677Z,4.93
2017-12-19T20:13:58.630Z,4.93
2017-12-19T20:19:24.719Z,4.98
2017-12-19T20:21:52.254Z,5.00
2017-12-19T20:24:19.736Z,5.02
2017-12-19T20:26:47.297Z,4.98
2017-12-19T20:29:14.816Z,4.97
2017-12-19T20:31:42.332Z,4.98
2017-12-19T20:34:09.841Z,4.98
2017-12-19T20:36:37.366Z,4.93
2017-12-19T20:39:04.882Z,4.93
2017-12-19T20:44:14.283Z,4.93
2017-12-19T20:46:41.816Z,4.92
2017-12-19T20:49:09.322Z,4.93
2017-12-19T20:51:36.813Z,4.95
2017-12-19T20:54:04.327Z,4.99
2017-12-19T20:56:31.839Z,4.89
2017-12-19T20:59:01.747Z,4.91
2017-12-19T21:01:29.456Z,4.94
2017-12-19T21:03:57.010Z,4.89
2017-12-19T21:06:24.598Z,4.86
2017-12-19T21:08:52.306Z,4.87
2017-12-19T21:11:20.989Z,4.85
2017-12-19T21:13:49.388Z,4.75
2017-12-19T21:16:16.912Z,4.76
2017-12-19T21:18:44.492Z,4.74
2017-12-19T21:21:12.048Z,4.75
2017-12-19T21:23:39.621Z,4.75
2017-12-19T21:26:07.144Z,4.76
2017-12-19T21:28:34.724Z,4.78
2017-12-19T21:31:05.252Z,4.81
2017-12-19T21:33:32.783Z,4.83
2017-12-19T21:36:00.296Z,4.88
2017-12-19T21:38:27.881Z,4.92
2017-12-19T21:40:55.399Z,4.93
2017-12-19T21:43:22.913Z,4.95
2017-12-19T21:45:50.420Z,4.92
2017-12-19T21:48:18.004Z,4.96
2017-12-19T21:50:45.796Z,4.98
2017-12-19T21:53:13.293Z,4.99
2017-12-19T21:55:40.821Z,5.04
2017-12-19T21:58:08.374Z,5.03
2017-12-19T22:00:35.886Z,5.04
2017-12-19T22:03:03.524Z,5.05
2017-12-19T22:05:31.083Z,5.05
2017-12-19T22:07:58.622Z,5.07
2017-12-19T22:10:26.149Z,5.07
2017-12-19T22:12:53.685Z,5.02
2017-12-19T22:15:21.223Z,5.09
2017-12-19T22:17:48.721Z,5.10
2017-12-19T22:20:16.267Z,5.11
2017-12-19T22:22:43.819Z,5.09
2017-12-19T22:25:11.564Z,5.05
2017-12-19T22:27:39.089Z,5.06
2017-12-19T22:30:06.607Z,5.10
2017-12-19T22:32:34.111Z,5.14
2017-12-19T22:35:01.654Z,5.16
2017-12-19T22:37:29.246Z,5.15
2017-12-19T22:39:56.878Z,5.14
2017-12-19T22:42:24.420Z,5.10
2017-12-19T22:44:51.937Z,5.15
2017-12-19T22:47:19.467Z,5.15
2017-12-19T22:49:47.004Z,5.16
2017-12-19T22:52:14.532Z,5.17
2017-12-19T22:54:42.075Z,5.21
2017-12-19T22:57:09.712Z,5.20
2017-12-19T22:59:37.245Z,5.17
2017-12-19T23:02:04.803Z,5.19
2017-12-19T23:04:32.338Z,5.19
2017-12-19T23:06:59.840Z,5.17
2017-12-19T23:09:27.359Z,5.17
2017-12-19T23:11:54.967Z,5.17
2017-12-19T23:14:22.479Z,5.18
2017-12-19T23:16:50.016Z,5.23
2017-12-19T23:19:17.543Z,5.21
2017-12-19T23:21:45.081Z,5.23
2017-12-19T23:24:12.599Z,5.19
2017-12-19T23:26:40.325Z,5.20
2017-12-19T23:29:07.829Z,5.21
2017-12-19T23:31:35.325Z,5.21
2017-12-19T23:34:02.846Z,5.24
2017-12-19T23:36:30.347Z,5.24
2017-12-19T23:38:57.864Z,5.20
2017-12-19T23:41:25.361Z,5.24
2017-12-19T23:43:52.900Z,5.18
2017-12-19T23:46:20.394Z,5.18
2017-12-19T23:48:47.889Z,5.18
2017-12-19T23:51:15.390Z,5.17
2017-12-19T23:53:42.920Z,5.20
2017-12-19T23:56:11.065Z,5.19
2017-12-19T23:58:38.653Z,5.20
